sensor_id;sensor_type;location;lat;lon;timestamp;pressure;altitude;pressure_sealevel;temperature;humidity
85936;BME280;76481;54.346;10.210;2024-02-26T00:00:17;100235.56;;;0.63;96.08
85936;BME280;76481;54.346;10.210;2024-02-26T00:02:44;100238.34;;;0.63;95.53
85936;BME280;76481;54.346;10.210;2024-02-26T00:05:09;100237.94;;;0.68;96.01
85936;BME280;76481;54.346;10.210;2024-02-26T00:07:35;100238.75;;;0.54;96.70
85936;BME280;76481;54.346;10.210;2024-02-26T00:10:00;100238.38;;;0.45;96.41
85936;BME280;76481;54.346;10.210;2024-02-26T00:12:26;100239.16;;;0.46;97.91
85936;BME280;76481;54.346;10.210;2024-02-26T00:14:51;100242.31;;;0.48;98.33
85936;BME280;76481;54.346;10.210;2024-02-26T00:17:18;100238.75;;;0.44;98.60
85936;BME280;76481;54.346;10.210;2024-02-26T00:19:43;100235.59;;;0.45;99.09
85936;BME280;76481;54.346;10.210;2024-02-26T00:22:08;100237.94;;;0.50;97.28
85936;BME280;76481;54.346;10.210;2024-02-26T00:24:34;100241.53;;;0.54;98.21
85936;BME280;76481;54.346;10.210;2024-02-26T00:27:00;100236.78;;;0.51;97.11
85936;BME280;76481;54.346;10.210;2024-02-26T00:29:25;100239.56;;;0.44;97.34
85936;BME280;76481;54.346;10.210;2024-02-26T00:31:51;100243.50;;;0.43;96.92
85936;BME280;76481;54.346;10.210;2024-02-26T00:34:17;100241.16;;;0.38;97.43
85936;BME280;76481;54.346;10.210;2024-02-26T00:36:42;100243.50;;;0.50;99.05
85936;BME280;76481;54.346;10.210;2024-02-26T00:39:08;100244.31;;;0.44;98.91
85936;BME280;76481;54.346;10.210;2024-02-26T00:41:38;100249.47;;;0.35;97.38
85936;BME280;76481;54.346;10.210;2024-02-26T00:44:03;100243.91;;;0.31;97.78
85936;BME280;76481;54.346;10.210;2024-02-26T00:46:29;100254.19;;;0.45;98.81
85936;BME280;76481;54.346;10.210;2024-02-26T00:48:55;100253.41;;;0.51;98.64
85936;BME280;76481;54.346;10.210;2024-02-26T00:51:20;100251.44;;;0.45;98.21
85936;BME280;76481;54.346;10.210;2024-02-26T00:53:46;100246.69;;;0.35;97.01
85936;BME280;76481;54.346;10.210;2024-02-26T00:56:11;100253.81;;;0.25;97.56
85936;BME280;76481;54.346;10.210;2024-02-26T00:58:37;100251.03;;;0.18;96.75
85936;BME280;76481;54.346;10.210;2024-02-26T01:01:03;100259.34;;;0.18;97.30
85936;BME280;76481;54.346;10.210;2024-02-26T01:03:28;100267.66;;;0.25;97.33
85936;BME280;76481;54.346;10.210;2024-02-26T01:05:54;100265.28;;;0.27;97.79
85936;BME280;76481;54.346;10.210;2024-02-26T01:08:19;100265.28;;;0.27;98.26
85936;BME280;76481;54.346;10.210;2024-02-26T01:10:45;100264.50;;;0.20;96.90
85936;BME280;76481;54.346;10.210;2024-02-26T01:13:11;100272.03;;;0.40;97.49
85936;BME280;76481;54.346;10.210;2024-02-26T01:15:37;100270.44;;;0.46;98.84
85936;BME280;76481;54.346;10.210;2024-02-26T01:18:02;100273.22;;;0.46;98.01
85936;BME280;76481;54.346;10.210;2024-02-26T01:20:28;100279.16;;;0.45;98.77
85936;BME280;76481;54.346;10.210;2024-02-26T01:22:53;100276.78;;;0.33;98.50
85936;BME280;76481;54.346;10.210;2024-02-26T01:25:19;100269.25;;;0.26;97.28
85936;BME280;76481;54.346;10.210;2024-02-26T01:27:44;100271.22;;;0.15;97.90
85936;BME280;76481;54.346;10.210;2024-02-26T01:30:10;100265.66;;;0.04;97.68
85936;BME280;76481;54.346;10.210;2024-02-26T01:32:36;100273.19;;;-0.03;97.11
85936;BME280;76481;54.346;10.210;2024-02-26T01:35:02;100281.50;;;-0.07;97.53
85936;BME280;76481;54.346;10.210;2024-02-26T01:37:29;100269.22;;;-0.13;98.01
85936;BME280;76481;54.346;10.210;2024-02-26T01:39:55;100267.63;;;-0.17;97.73
85936;BME280;76481;54.346;10.210;2024-02-26T01:42:21;100275.94;;;-0.17;97.32
85936;BME280;76481;54.346;10.210;2024-02-26T01:44:46;100282.28;;;-0.06;97.83
85936;BME280;76481;54.346;10.210;2024-02-26T01:47:12;100283.09;;;0.09;97.54
85936;BME280;76481;54.346;10.210;2024-02-26T01:49:39;100284.28;;;0.00;96.27
85936;BME280;76481;54.346;10.210;2024-02-26T01:52:06;100279.53;;;-0.06;95.82
85936;BME280;76481;54.346;10.210;2024-02-26T01:54:37;100271.19;;;-0.13;96.13
85936;BME280;76481;54.346;10.210;2024-02-26T01:57:04;100277.50;;;-0.23;95.94
85936;BME280;76481;54.346;10.210;2024-02-26T01:59:30;100290.53;;;-0.34;96.17
85936;BME280;76481;54.346;10.210;2024-02-26T02:01:57;100284.56;;;-0.43;97.26
85936;BME280;76481;54.346;10.210;2024-02-26T02:04:24;100285.34;;;-0.46;97.60
85936;BME280;76481;54.346;10.210;2024-02-26T02:06:50;100286.09;;;-0.53;96.59
85936;BME280;76481;54.346;10.210;2024-02-26T02:09:18;100286.47;;;-0.54;97.09
85936;BME280;76481;54.346;10.210;2024-02-26T02:11:43;100286.47;;;-0.58;97.44
85936;BME280;76481;54.346;10.210;2024-02-26T02:14:10;100291.63;;;-0.56;98.23
85936;BME280;76481;54.346;10.210;2024-02-26T02:16:35;100297.09;;;-0.70;97.42
85936;BME280;76481;54.346;10.210;2024-02-26T02:19:01;100291.16;;;-0.72;97.12
85936;BME280;76481;54.346;10.210;2024-02-26T02:21:26;100298.25;;;-0.75;97.61
85936;BME280;76481;54.346;10.210;2024-02-26T02:23:52;100285.19;;;-0.78;97.42
85936;BME280;76481;54.346;10.210;2024-02-26T02:26:18;100291.53;;;-0.77;98.33
85936;BME280;76481;54.346;10.210;2024-02-26T02:28:45;100293.91;;;-0.76;98.73
85936;BME280;76481;54.346;10.210;2024-02-26T02:31:11;100292.34;;;-0.77;98.51
85936;BME280;76481;54.346;10.210;2024-02-26T02:33:37;100286.78;;;-0.73;97.76
85936;BME280;76481;54.346;10.210;2024-02-26T02:36:03;100294.75;;;-0.68;97.88
85936;BME280;76481;54.346;10.210;2024-02-26T02:38:29;100293.56;;;-0.71;98.31
85936;BME280;76481;54.346;10.210;2024-02-26T02:40:55;100297.88;;;-0.77;97.71
85936;BME280;76481;54.346;10.210;2024-02-26T02:43:21;100291.88;;;-0.82;97.63
85936;BME280;76481;54.346;10.210;2024-02-26T02:45:47;100300.59;;;-0.80;98.47
85936;BME280;76481;54.346;10.210;2024-02-26T02:48:12;100305.06;;;-0.58;98.13
85936;BME280;76481;54.346;10.210;2024-02-26T02:50:38;100307.09;;;-0.52;95.99
85936;BME280;76481;54.346;10.210;2024-02-26T02:53:04;100309.78;;;-0.59;97.00
85936;BME280;76481;54.346;10.210;2024-02-26T02:55:29;100311.72;;;-0.70;95.83
85936;BME280;76481;54.346;10.210;2024-02-26T02:57:55;100306.91;;;-0.83;96.81
85936;BME280;76481;54.346;10.210;2024-02-26T03:00:20;100307.63;;;-0.97;96.78
85936;BME280;76481;54.346;10.210;2024-02-26T03:02:49;100311.97;;;-0.99;97.67
85936;BME280;76481;54.346;10.210;2024-02-26T03:05:14;100315.91;;;-1.00;97.91
85936;BME280;76481;54.346;10.210;2024-02-26T03:07:40;100318.25;;;-1.02;98.03
85936;BME280;76481;54.346;10.210;2024-02-26T03:10:06;100315.06;;;-1.04;97.92
85936;BME280;76481;54.346;10.210;2024-02-26T03:12:32;100312.75;;;-0.99;98.26
85936;BME280;76481;54.346;10.210;2024-02-26T03:14:57;100321.53;;;-0.86;98.15
85936;BME280;76481;54.346;10.210;2024-02-26T03:17:23;100308.91;;;-0.80;99.23
85936;BME280;76481;54.346;10.210;2024-02-26T03:19:49;100320.44;;;-0.71;98.89
85936;BME280;76481;54.346;10.210;2024-02-26T03:22:19;100316.88;;;-0.68;99.21
85936;BME280;76481;54.346;10.210;2024-02-26T03:24:45;100323.28;;;-0.54;99.69
85936;BME280;76481;54.346;10.210;2024-02-26T03:27:10;100318.53;;;-0.53;99.36
85936;BME280;76481;54.346;10.210;2024-02-26T03:29:37;100323.66;;;-0.55;99.94
85936;BME280;76481;54.346;10.210;2024-02-26T03:32:03;100321.25;;;-0.64;99.16
85936;BME280;76481;54.346;10.210;2024-02-26T03:34:28;100322.41;;;-0.68;98.97
85936;BME280;76481;54.346;10.210;2024-02-26T03:36:55;100323.94;;;-0.81;98.90
85936;BME280;76481;54.346;10.210;2024-02-26T03:39:21;100335.75;;;-0.91;98.83
85936;BME280;76481;54.346;10.210;2024-02-26T03:41:48;100328.59;;;-0.92;99.17
85936;BME280;76481;54.346;10.210;2024-02-26T03:44:13;100332.56;;;-0.93;98.62
85936;BME280;76481;54.346;10.210;2024-02-26T03:46:39;100338.84;;;-0.96;98.38
85936;BME280;76481;54.346;10.210;2024-02-26T03:49:04;100351.50;;;-0.99;98.55
85936;BME280;76481;54.346;10.210;2024-02-26T03:51:30;100346.69;;;-1.05;98.43
85936;BME280;76481;54.346;10.210;2024-02-26T03:54:00;100342.72;;;-1.08;98.49
85936;BME280;76481;54.346;10.210;2024-02-26T03:56:26;100335.63;;;-1.05;99.12
85936;BME280;76481;54.346;10.210;2024-02-26T03:58:52;100349.44;;;-1.09;99.59
85936;BME280;76481;54.346;10.210;2024-02-26T04:01:17;100347.84;;;-1.13;99.28
85936;BME280;76481;54.346;10.210;2024-02-26T04:03:43;100357.41;;;-1.00;99.04
85936;BME280;76481;54.346;10.210;2024-02-26T04:06:09;100365.38;;;-0.88;98.29
85936;BME280;76481;54.346;10.210;2024-02-26T04:08:46;100352.69;;;-0.96;98.34
85936;BME280;76481;54.346;10.210;2024-02-26T04:11:12;100359.34;;;-1.04;97.47
85936;BME280;76481;54.346;10.210;2024-02-26T04:13:38;100356.91;;;-1.16;98.19
85936;BME280;76481;54.346;10.210;2024-02-26T04:16:05;100362.81;;;-1.14;98.24
85936;BME280;76481;54.346;10.210;2024-02-26T04:18:31;100369.97;;;-1.13;98.55
85936;BME280;76481;54.346;10.210;2024-02-26T04:20:57;100372.31;;;-1.15;98.96
85936;BME280;76481;54.346;10.210;2024-02-26T04:23:23;100381.00;;;-1.17;98.04
85936;BME280;76481;54.346;10.210;2024-02-26T04:25:48;100382.59;;;-1.12;98.63
85936;BME280;76481;54.346;10.210;2024-02-26T04:28:14;100382.22;;;-1.07;97.07
85936;BME280;76481;54.346;10.210;2024-02-26T04:30:39;100394.06;;;-1.14;97.73
85936;BME280;76481;54.346;10.210;2024-02-26T04:33:05;100394.38;;;-1.22;97.59
85936;BME280;76481;54.346;10.210;2024-02-26T04:35:30;100390.72;;;-1.33;97.63
85936;BME280;76481;54.346;10.210;2024-02-26T04:37:56;100395.44;;;-1.37;97.84
85936;BME280;76481;54.346;10.210;2024-02-26T04:40:22;100397.75;;;-1.43;98.12
85936;BME280;76481;54.346;10.210;2024-02-26T04:42:47;100408.78;;;-1.46;98.29
85936;BME280;76481;54.346;10.210;2024-02-26T04:45:13;100407.56;;;-1.49;98.59
85936;BME280;76481;54.346;10.210;2024-02-26T04:47:38;100417.81;;;-1.49;97.79
85936;BME280;76481;54.346;10.210;2024-02-26T04:50:05;100415.81;;;-1.52;98.97
85936;BME280;76481;54.346;10.210;2024-02-26T04:52:30;100426.50;;;-1.51;98.57
85936;BME280;76481;54.346;10.210;2024-02-26T04:54:56;100428.84;;;-1.53;98.46
85936;BME280;76481;54.346;10.210;2024-02-26T04:57:22;100426.06;;;-1.53;98.54
85936;BME280;76481;54.346;10.210;2024-02-26T04:59:47;100441.88;;;-1.53;98.86
85936;BME280;76481;54.346;10.210;2024-02-26T05:02:13;100443.03;;;-1.54;98.46
85936;BME280;76481;54.346;10.210;2024-02-26T05:04:39;100434.03;;;-1.48;99.03
85936;BME280;76481;54.346;10.210;2024-02-26T05:07:04;100443.16;;;-1.44;99.61
85936;BME280;76481;54.346;10.210;2024-02-26T05:09:30;100438.00;;;-1.45;99.58
85936;BME280;76481;54.346;10.210;2024-02-26T05:11:55;100455.34;;;-1.48;98.68
85936;BME280;76481;54.346;10.210;2024-02-26T05:14:21;100449.00;;;-1.52;99.23
85936;BME280;76481;54.346;10.210;2024-02-26T05:16:47;100459.25;;;-1.53;99.39
85936;BME280;76481;54.346;10.210;2024-02-26T05:19:13;100459.63;;;-1.54;98.27
85936;BME280;76481;54.346;10.210;2024-02-26T05:21:38;100457.63;;;-1.57;98.26
85936;BME280;76481;54.346;10.210;2024-02-26T05:24:05;100460.41;;;-1.57;98.50
85936;BME280;76481;54.346;10.210;2024-02-26T05:26:30;100455.25;;;-1.59;98.75
85936;BME280;76481;54.346;10.210;2024-02-26T05:28:56;100464.69;;;-1.63;98.92
85936;BME280;76481;54.346;10.210;2024-02-26T05:31:25;100465.44;;;-1.66;97.98
85936;BME280;76481;54.346;10.210;2024-02-26T05:33:51;100459.09;;;-1.67;98.31
85936;BME280;76481;54.346;10.210;2024-02-26T05:36:23;100461.44;;;-1.69;98.43
85936;BME280;76481;54.346;10.210;2024-02-26T05:38:49;100468.66;;;-1.61;98.89
85936;BME280;76481;54.346;10.210;2024-02-26T05:41:16;100469.81;;;-1.62;98.75
85936;BME280;76481;54.346;10.210;2024-02-26T05:43:42;100473.03;;;-1.56;99.42
85936;BME280;76481;54.346;10.210;2024-02-26T05:46:08;100466.69;;;-1.60;98.94
85936;BME280;76481;54.346;10.210;2024-02-26T05:48:33;100465.56;;;-1.52;98.99
85936;BME280;76481;54.346;10.210;2024-02-26T05:50:59;100470.47;;;-1.39;98.92
85936;BME280;76481;54.346;10.210;2024-02-26T05:53:24;100474.03;;;-1.38;99.02
85936;BME280;76481;54.346;10.210;2024-02-26T05:55:50;100482.72;;;-1.36;99.40
85936;BME280;76481;54.346;10.210;2024-02-26T05:58:16;100486.31;;;-1.32;99.08
85936;BME280;76481;54.346;10.210;2024-02-26T06:00:41;100500.69;;;-1.20;99.66
85936;BME280;76481;54.346;10.210;2024-02-26T06:03:07;100494.69;;;-1.25;99.52
85936;BME280;76481;54.346;10.210;2024-02-26T06:05:32;100490.69;;;-1.28;99.33
85936;BME280;76481;54.346;10.210;2024-02-26T06:07:58;100498.97;;;-1.31;99.15
85936;BME280;76481;54.346;10.210;2024-02-26T06:10:23;100499.81;;;-1.27;99.32
85936;BME280;76481;54.346;10.210;2024-02-26T06:12:48;100511.69;;;-1.23;98.73
85936;BME280;76481;54.346;10.210;2024-02-26T06:15:14;100510.06;;;-1.28;99.37
85936;BME280;76481;54.346;10.210;2024-02-26T06:17:40;100520.47;;;-1.18;99.70
85936;BME280;76481;54.346;10.210;2024-02-26T06:20:06;100518.13;;;-1.12;99.93
85936;BME280;76481;54.346;10.210;2024-02-26T06:22:31;100519.78;;;-1.08;99.81
85936;BME280;76481;54.346;10.210;2024-02-26T06:24:57;100526.13;;;-1.04;98.73
85936;BME280;76481;54.346;10.210;2024-02-26T06:27:23;100522.16;;;-1.06;99.14
85936;BME280;76481;54.346;10.210;2024-02-26T06:29:49;100521.34;;;-1.07;99.84
85936;BME280;76481;54.346;10.210;2024-02-26T06:32:14;100537.19;;;-1.04;99.72
85936;BME280;76481;54.346;10.210;2024-02-26T06:34:40;100532.47;;;-1.03;98.90
85936;BME280;76481;54.346;10.210;2024-02-26T06:37:07;100534.03;;;-0.62;99.51
85936;BME280;76481;54.346;10.210;2024-02-26T06:39:33;100535.22;;;-0.09;100.00
85936;BME280;76481;54.346;10.210;2024-02-26T06:41:58;100530.03;;;-0.14;99.96
85936;BME280;76481;54.346;10.210;2024-02-26T06:44:27;100545.06;;;-0.15;99.85
85936;BME280;76481;54.346;10.210;2024-02-26T06:47:01;100546.88;;;0.28;100.00
85936;BME280;76481;54.346;10.210;2024-02-26T06:49:27;100539.78;;;0.34;98.95
85936;BME280;76481;54.346;10.210;2024-02-26T06:51:53;100544.56;;;0.41;99.77
85936;BME280;76481;54.346;10.210;2024-02-26T06:54:19;100538.22;;;0.37;98.99
85936;BME280;76481;54.346;10.210;2024-02-26T06:56:44;100556.44;;;0.38;100.00
85936;BME280;76481;54.346;10.210;2024-02-26T06:59:10;100566.34;;;0.39;100.00
85936;BME280;76481;54.346;10.210;2024-02-26T07:01:35;100562.00;;;0.38;100.00
85936;BME280;76481;54.346;10.210;2024-02-26T07:04:01;100568.34;;;0.38;100.00
85936;BME280;76481;54.346;10.210;2024-02-26T07:06:29;100581.03;;;0.43;99.86
85936;BME280;76481;54.346;10.210;2024-02-26T07:08:55;100571.53;;;0.44;99.37
85936;BME280;76481;54.346;10.210;2024-02-26T07:11:20;100583.44;;;0.51;100.00
85936;BME280;76481;54.346;10.210;2024-02-26T07:13:46;100581.84;;;0.50;100.00
85936;BME280;76481;54.346;10.210;2024-02-26T07:16:12;100585.84;;;0.53;100.00
85936;BME280;76481;54.346;10.210;2024-02-26T07:18:39;100588.97;;;0.48;99.91
85936;BME280;76481;54.346;10.210;2024-02-26T07:21:04;100598.47;;;0.50;100.00
85936;BME280;76481;54.346;10.210;2024-02-26T07:23:31;100589.34;;;0.43;100.00
85936;BME280;76481;54.346;10.210;2024-02-26T07:25:57;100594.09;;;0.46;99.76
85936;BME280;76481;54.346;10.210;2024-02-26T07:28:22;100589.75;;;0.41;99.33
85936;BME280;76481;54.346;10.210;2024-02-26T07:30:48;100592.09;;;0.39;99.17
85936;BME280;76481;54.346;10.210;2024-02-26T07:33:13;100595.28;;;0.41;99.72
85936;BME280;76481;54.346;10.210;2024-02-26T07:35:39;100596.47;;;0.40;98.82
85936;BME280;76481;54.346;10.210;2024-02-26T07:38:04;100607.56;;;0.37;99.86
85936;BME280;76481;54.346;10.210;2024-02-26T07:40:30;100603.56;;;0.31;99.01
85936;BME280;76481;54.346;10.210;2024-02-26T07:42:55;100602.31;;;0.25;98.54
85936;BME280;76481;54.346;10.210;2024-02-26T07:45:21;100607.06;;;0.24;99.52
85936;BME280;76481;54.346;10.210;2024-02-26T07:47:47;100609.91;;;0.35;99.95
85936;BME280;76481;54.346;10.210;2024-02-26T07:50:13;100609.53;;;0.43;100.00
85936;BME280;76481;54.346;10.210;2024-02-26T07:52:39;100615.97;;;0.58;100.00
85936;BME280;76481;54.346;10.210;2024-02-26T07:55:05;100627.84;;;0.58;99.13
85936;BME280;76481;54.346;10.210;2024-02-26T07:57:32;100625.53;;;0.67;100.00
85936;BME280;76481;54.346;10.210;2024-02-26T07:59:59;100635.47;;;0.75;99.86
85936;BME280;76481;54.346;10.210;2024-02-26T08:02:24;100639.84;;;0.76;99.77
85936;BME280;76481;54.346;10.210;2024-02-26T08:04:50;100632.31;;;0.80;99.68
85936;BME280;76481;54.346;10.210;2024-02-26T08:07:16;100640.66;;;0.87;100.00
85936;BME280;76481;54.346;10.210;2024-02-26T08:09:41;100643.09;;;0.99;100.00
85936;BME280;76481;54.346;10.210;2024-02-26T08:12:07;100642.72;;;1.04;100.00
85936;BME280;76481;54.346;10.210;2024-02-26T08:14:33;100649.91;;;1.19;99.75
85936;BME280;76481;54.346;10.210;2024-02-26T08:16:58;100651.88;;;1.15;99.02
85936;BME280;76481;54.346;10.210;2024-02-26T08:19:24;100659.88;;;1.34;99.18
85936;BME280;76481;54.346;10.210;2024-02-26T08:21:50;100665.81;;;1.40;100.00
85936;BME280;76481;54.346;10.210;2024-02-26T08:24:16;100671.84;;;1.56;99.23
85936;BME280;76481;54.346;10.210;2024-02-26T08:26:43;100673.03;;;1.51;99.56
85936;BME280;76481;54.346;10.210;2024-02-26T08:29:08;100676.59;;;1.55;98.83
85936;BME280;76481;54.346;10.210;2024-02-26T08:31:34;100671.41;;;1.50;99.58
85936;BME280;76481;54.346;10.210;2024-02-26T08:34:03;100677.38;;;1.59;99.01
85936;BME280;76481;54.346;10.210;2024-02-26T08:36:29;100677.44;;;1.73;98.38
85936;BME280;76481;54.346;10.210;2024-02-26T08:38:55;100675.44;;;1.77;99.13
85936;BME280;76481;54.346;10.210;2024-02-26T08:41:20;100675.84;;;1.86;98.42
85936;BME280;76481;54.346;10.210;2024-02-26T08:43:46;100668.31;;;1.76;98.21
85936;BME280;76481;54.346;10.210;2024-02-26T08:46:12;100677.03;;;1.89;97.92
85936;BME280;76481;54.346;10.210;2024-02-26T08:48:39;100689.72;;;1.83;97.35
85936;BME280;76481;54.346;10.210;2024-02-26T08:51:08;100681.41;;;1.93;97.59
85936;BME280;76481;54.346;10.210;2024-02-26T08:53:34;100685.38;;;1.99;97.45
85936;BME280;76481;54.346;10.210;2024-02-26T08:56:00;100677.81;;;1.79;97.67
85936;BME280;76481;54.346;10.210;2024-02-26T08:58:27;100683.00;;;1.94;98.30
85936;BME280;76481;54.346;10.210;2024-02-26T09:00:53;100675.81;;;1.51;97.54
85936;BME280;76481;54.346;10.210;2024-02-26T09:03:18;100694.03;;;1.45;98.95
85936;BME280;76481;54.346;10.210;2024-02-26T09:05:44;100693.72;;;1.75;98.82
85936;BME280;76481;54.346;10.210;2024-02-26T09:08:09;100687.34;;;1.81;98.80
85936;BME280;76481;54.346;10.210;2024-02-26T09:10:35;100702.84;;;2.03;98.53
85936;BME280;76481;54.346;10.210;2024-02-26T09:13:00;100688.94;;;2.10;98.04
85936;BME280;76481;54.346;10.210;2024-02-26T09:15:26;100693.31;;;2.18;97.61
85936;BME280;76481;54.346;10.210;2024-02-26T09:17:51;100694.91;;;2.30;97.41
85936;BME280;76481;54.346;10.210;2024-02-26T09:20:17;100701.25;;;2.27;97.28
85936;BME280;76481;54.346;10.210;2024-02-26T09:22:47;100706.03;;;2.34;97.01
85936;BME280;76481;54.346;10.210;2024-02-26T09:25:13;100702.88;;;2.17;97.75
85936;BME280;76481;54.346;10.210;2024-02-26T09:27:39;100700.06;;;1.96;98.14
85936;BME280;76481;54.346;10.210;2024-02-26T09:30:05;100702.84;;;2.03;98.51
85936;BME280;76481;54.346;10.210;2024-02-26T09:32:30;100709.59;;;1.92;97.85
85936;BME280;76481;54.346;10.210;2024-02-26T09:34:56;100698.06;;;1.79;98.32
85936;BME280;76481;54.346;10.210;2024-02-26T09:37:21;100706.84;;;2.02;99.24
85936;BME280;76481;54.346;10.210;2024-02-26T09:39:47;100707.22;;;2.08;99.12
85936;BME280;76481;54.346;10.210;2024-02-26T09:42:13;100711.22;;;2.25;98.49
85936;BME280;76481;54.346;10.210;2024-02-26T09:44:40;100712.38;;;2.45;98.33
85936;BME280;76481;54.346;10.210;2024-02-26T09:47:11;100714.75;;;2.53;97.43
85936;BME280;76481;54.346;10.210;2024-02-26T09:49:38;100723.53;;;2.41;97.05
85936;BME280;76481;54.346;10.210;2024-02-26T09:52:04;100721.13;;;2.26;98.08
85936;BME280;76481;54.346;10.210;2024-02-26T09:54:31;100725.09;;;2.46;97.87
85936;BME280;76481;54.346;10.210;2024-02-26T09:57:00;100731.84;;;2.23;98.17
85936;BME280;76481;54.346;10.210;2024-02-26T09:59:29;100734.66;;;2.31;97.55
85936;BME280;76481;54.346;10.210;2024-02-26T10:02:01;100734.22;;;2.53;97.71
85936;BME280;76481;54.346;10.210;2024-02-26T10:04:28;100734.19;;;2.71;97.06
85936;BME280;76481;54.346;10.210;2024-02-26T10:06:54;100734.59;;;2.83;97.28
85936;BME280;76481;54.346;10.210;2024-02-26T10:09:20;100735.34;;;3.01;96.52
85936;BME280;76481;54.346;10.210;2024-02-26T10:11:47;100754.84;;;2.94;96.35
85936;BME280;76481;54.346;10.210;2024-02-26T10:14:14;100746.13;;;2.85;95.59
85936;BME280;76481;54.346;10.210;2024-02-26T10:16:41;100749.69;;;2.86;96.67
85936;BME280;76481;54.346;10.210;2024-02-26T10:19:06;100758.06;;;2.68;96.93
85936;BME280;76481;54.346;10.210;2024-02-26T10:21:32;100758.88;;;2.58;97.86
85936;BME280;76481;54.346;10.210;2024-02-26T10:23:57;100763.22;;;2.77;97.88
85936;BME280;76481;54.346;10.210;2024-02-26T10:26:23;100764.84;;;2.57;97.86
85936;BME280;76481;54.346;10.210;2024-02-26T10:28:48;100776.75;;;2.85;97.76
85936;BME280;76481;54.346;10.210;2024-02-26T10:31:14;100769.56;;;2.98;97.39
85936;BME280;76481;54.346;10.210;2024-02-26T10:33:41;100767.16;;;3.14;96.92
85936;BME280;76481;54.346;10.210;2024-02-26T10:36:08;100773.88;;;3.13;96.50
85936;BME280;76481;54.346;10.210;2024-02-26T10:38:34;100780.66;;;3.12;95.60
85936;BME280;76481;54.346;10.210;2024-02-26T10:41:06;100786.28;;;2.84;95.72
85936;BME280;76481;54.346;10.210;2024-02-26T10:43:33;100793.06;;;2.80;96.37
85936;BME280;76481;54.346;10.210;2024-02-26T10:45:59;100799.00;;;2.89;96.78
85936;BME280;76481;54.346;10.210;2024-02-26T10:48:24;100796.25;;;2.61;97.12
85936;BME280;76481;54.346;10.210;2024-02-26T10:50:50;100795.06;;;2.41;97.67
85936;BME280;76481;54.346;10.210;2024-02-26T10:53:22;100794.25;;;2.58;98.28
85936;BME280;76481;54.346;10.210;2024-02-26T10:55:52;100798.25;;;2.67;97.71
85936;BME280;76481;54.346;10.210;2024-02-26T10:58:20;100798.66;;;2.59;97.96
85936;BME280;76481;54.346;10.210;2024-02-26T11:00:49;100799.03;;;2.50;97.92
85936;BME280;76481;54.346;10.210;2024-02-26T11:03:15;100795.06;;;2.58;97.86
85936;BME280;76481;54.346;10.210;2024-02-26T11:05:47;100787.91;;;2.82;97.83
85936;BME280;76481;54.346;10.210;2024-02-26T11:08:14;100787.91;;;2.61;97.59
85936;BME280;76481;54.346;10.210;2024-02-26T11:10:40;100792.69;;;2.67;98.08
85936;BME280;76481;54.346;10.210;2024-02-26T11:13:09;100797.44;;;2.70;97.85
85936;BME280;76481;54.346;10.210;2024-02-26T11:15:37;100798.22;;;2.71;97.89
85936;BME280;76481;54.346;10.210;2024-02-26T11:18:05;100791.44;;;2.93;98.12
85936;BME280;76481;54.346;10.210;2024-02-26T11:20:32;100799.03;;;2.92;97.85
85936;BME280;76481;54.346;10.210;2024-02-26T11:22:58;100800.59;;;3.00;97.21
85936;BME280;76481;54.346;10.210;2024-02-26T11:25:24;100796.19;;;3.10;96.65
85936;BME280;76481;54.346;10.210;2024-02-26T11:28:02;100791.81;;;3.16;96.45
85936;BME280;76481;54.346;10.210;2024-02-26T11:30:35;100797.41;;;3.09;96.61
85936;BME280;76481;54.346;10.210;2024-02-26T11:33:06;100799.78;;;3.14;96.67
85936;BME280;76481;54.346;10.210;2024-02-26T11:35:34;100797.38;;;3.23;96.66
85936;BME280;76481;54.346;10.210;2024-02-26T11:38:01;100798.06;;;3.44;96.10
85936;BME280;76481;54.346;10.210;2024-02-26T11:40:27;100797.75;;;3.28;96.00
85936;BME280;76481;54.346;10.210;2024-02-26T11:42:53;100809.28;;;3.27;95.13
85936;BME280;76481;54.346;10.210;2024-02-26T11:45:51;100806.00;;;3.60;95.97
85936;BME280;76481;54.346;10.210;2024-02-26T11:48:21;100801.09;;;3.85;95.58
85936;BME280;76481;54.346;10.210;2024-02-26T11:50:48;100800.16;;;4.09;95.48
85936;BME280;76481;54.346;10.210;2024-02-26T11:53:21;100796.47;;;4.26;94.16
85936;BME280;76481;54.346;10.210;2024-02-26T11:55:48;100796.59;;;4.63;94.16
85936;BME280;76481;54.346;10.210;2024-02-26T11:58:33;100799.91;;;4.95;89.73
85936;BME280;76481;54.346;10.210;2024-02-26T12:00:59;100798.28;;;5.35;91.59
85936;BME280;76481;54.346;10.210;2024-02-26T12:03:24;100803.22;;;5.57;87.90
85936;BME280;76481;54.346;10.210;2024-02-26T12:05:51;100796.16;;;6.09;87.60
85936;BME280;76481;54.346;10.210;2024-02-26T12:08:23;100807.53;;;5.62;85.55
85936;BME280;76481;54.346;10.210;2024-02-26T12:10:50;100809.75;;;5.10;85.69
85936;BME280;76481;54.346;10.210;2024-02-26T12:13:16;100804.19;;;5.03;87.47
85936;BME280;76481;54.346;10.210;2024-02-26T12:15:44;100813.13;;;5.28;87.80
85936;BME280;76481;54.346;10.210;2024-02-26T12:18:15;100811.94;;;5.29;88.78
85936;BME280;76481;54.346;10.210;2024-02-26T12:20:44;100812.56;;;5.77;88.07
85936;BME280;76481;54.346;10.210;2024-02-26T12:23:15;100819.53;;;5.25;86.38
85936;BME280;76481;54.346;10.210;2024-02-26T12:25:43;100810.09;;;5.12;85.05
85936;BME280;76481;54.346;10.210;2024-02-26T12:28:09;100819.31;;;5.09;87.01
85936;BME280;76481;54.346;10.210;2024-02-26T12:30:35;100818.06;;;5.88;84.98
85936;BME280;76481;54.346;10.210;2024-02-26T12:33:01;100821.06;;;6.30;83.52
85936;BME280;76481;54.346;10.210;2024-02-26T12:35:27;100828.19;;;5.75;83.94
85936;BME280;76481;54.346;10.210;2024-02-26T12:37:54;100829.25;;;5.51;85.18
85936;BME280;76481;54.346;10.210;2024-02-26T12:40:20;100845.25;;;5.13;84.84